Terminal Aerodrome Forecast
Issued by NWS Riverton, WY

Home | Current Version | Previous Version | Text Only | Print | Product List | Glossary On
Versions: 1 2 3 4 5 6 7 8 9 10 11 12 13 14 15 16
000
FTUS45 KRIW 302300
TAFRIW
TAF
KRIW 302326Z 3100/3124 36007KT P6SM SCT070 BKN200
     FM310300 VRB05KT P6SM SCT200
     FM311600 VRB05KT P6SM SCT150=

USA.gov is the U.S. government's official web portal to all federal, state and local government web resources and services.